sensor_id;sensor_type;location;lat;lon;timestamp;temperature;humidity
23156;DHT22;11746;50.876;4.246;2024-03-29T00:01:15;10.10;99.90
23156;DHT22;11746;50.876;4.246;2024-03-29T00:03:41;10.10;99.90
23156;DHT22;11746;50.876;4.246;2024-03-29T00:06:07;10.10;99.90
23156;DHT22;11746;50.876;4.246;2024-03-29T00:08:33;10.10;99.90
23156;DHT22;11746;50.876;4.246;2024-03-29T00:10:58;10.20;99.90
23156;DHT22;11746;50.876;4.246;2024-03-29T00:13:24;10.20;99.90
23156;DHT22;11746;50.876;4.246;2024-03-29T00:15:49;10.10;99.90
23156;DHT22;11746;50.876;4.246;2024-03-29T00:18:18;10.10;99.90
23156;DHT22;11746;50.876;4.246;2024-03-29T00:20:43;10.20;99.90
23156;DHT22;11746;50.876;4.246;2024-03-29T00:23:09;10.30;99.90
23156;DHT22;11746;50.876;4.246;2024-03-29T00:25:34;10.30;99.90
23156;DHT22;11746;50.876;4.246;2024-03-29T00:28:02;10.40;99.90
23156;DHT22;11746;50.876;4.246;2024-03-29T00:30:30;10.30;99.90
23156;DHT22;11746;50.876;4.246;2024-03-29T00:32:56;10.40;99.90
23156;DHT22;11746;50.876;4.246;2024-03-29T00:35:21;10.40;99.90
23156;DHT22;11746;50.876;4.246;2024-03-29T00:37:49;10.40;99.90
23156;DHT22;11746;50.876;4.246;2024-03-29T00:40:15;10.40;99.90
23156;DHT22;11746;50.876;4.246;2024-03-29T00:42:41;10.40;99.90
23156;DHT22;11746;50.876;4.246;2024-03-29T00:45:09;10.40;99.90
23156;DHT22;11746;50.876;4.246;2024-03-29T00:47:37;10.50;99.90
23156;DHT22;11746;50.876;4.246;2024-03-29T00:50:03;10.50;99.90
23156;DHT22;11746;50.876;4.246;2024-03-29T00:52:28;10.50;99.90
23156;DHT22;11746;50.876;4.246;2024-03-29T00:54:54;10.60;99.90
23156;DHT22;11746;50.876;4.246;2024-03-29T00:57:22;10.60;99.90
23156;DHT22;11746;50.876;4.246;2024-03-29T00:59:47;10.70;99.90
23156;DHT22;11746;50.876;4.246;2024-03-29T01:02:13;10.60;99.90
23156;DHT22;11746;50.876;4.246;2024-03-29T01:04:39;10.60;99.90
23156;DHT22;11746;50.876;4.246;2024-03-29T01:07:08;10.60;99.90
23156;DHT22;11746;50.876;4.246;2024-03-29T01:09:34;10.60;99.90
23156;DHT22;11746;50.876;4.246;2024-03-29T01:11:59;10.70;99.90
23156;DHT22;11746;50.876;4.246;2024-03-29T01:14:27;10.70;99.90
23156;DHT22;11746;50.876;4.246;2024-03-29T01:16:55;10.80;99.90
23156;DHT22;11746;50.876;4.246;2024-03-29T01:19:23;10.80;99.90
23156;DHT22;11746;50.876;4.246;2024-03-29T01:21:52;10.80;99.90
23156;DHT22;11746;50.876;4.246;2024-03-29T01:24:20;10.90;99.90
23156;DHT22;11746;50.876;4.246;2024-03-29T01:26:45;10.80;99.90
23156;DHT22;11746;50.876;4.246;2024-03-29T01:29:13;10.80;99.90
23156;DHT22;11746;50.876;4.246;2024-03-29T01:31:39;10.70;99.90
23156;DHT22;11746;50.876;4.246;2024-03-29T01:34:04;10.80;99.90
23156;DHT22;11746;50.876;4.246;2024-03-29T01:36:30;10.80;99.90
23156;DHT22;11746;50.876;4.246;2024-03-29T01:38:55;10.70;99.90
23156;DHT22;11746;50.876;4.246;2024-03-29T01:41:24;10.60;99.90
23156;DHT22;11746;50.876;4.246;2024-03-29T01:43:53;10.50;99.90
23156;DHT22;11746;50.876;4.246;2024-03-29T01:46:21;10.50;99.90
23156;DHT22;11746;50.876;4.246;2024-03-29T01:48:47;10.40;99.90
23156;DHT22;11746;50.876;4.246;2024-03-29T01:51:14;10.40;99.90
23156;DHT22;11746;50.876;4.246;2024-03-29T01:53:42;10.30;99.90
23156;DHT22;11746;50.876;4.246;2024-03-29T01:56:14;10.40;99.90
23156;DHT22;11746;50.876;4.246;2024-03-29T01:58:41;10.30;99.90
23156;DHT22;11746;50.876;4.246;2024-03-29T02:01:07;10.30;99.90
23156;DHT22;11746;50.876;4.246;2024-03-29T02:03:36;10.30;99.90
23156;DHT22;11746;50.876;4.246;2024-03-29T02:06:02;10.30;99.90
23156;DHT22;11746;50.876;4.246;2024-03-29T02:08:29;10.20;99.90
23156;DHT22;11746;50.876;4.246;2024-03-29T02:10:57;10.10;99.90
23156;DHT22;11746;50.876;4.246;2024-03-29T02:13:25;10.10;99.90
23156;DHT22;11746;50.876;4.246;2024-03-29T02:15:51;9.90;99.90
23156;DHT22;11746;50.876;4.246;2024-03-29T02:18:19;9.90;99.90
23156;DHT22;11746;50.876;4.246;2024-03-29T02:20:44;9.90;99.90
23156;DHT22;11746;50.876;4.246;2024-03-29T02:23:22;10.00;99.90
23156;DHT22;11746;50.876;4.246;2024-03-29T02:25:54;9.80;99.90
23156;DHT22;11746;50.876;4.246;2024-03-29T02:28:22;9.70;99.90
23156;DHT22;11746;50.876;4.246;2024-03-29T02:30:50;9.70;99.90
23156;DHT22;11746;50.876;4.246;2024-03-29T02:33:16;9.80;99.90
23156;DHT22;11746;50.876;4.246;2024-03-29T02:35:42;9.80;99.90
23156;DHT22;11746;50.876;4.246;2024-03-29T02:38:07;9.60;99.90
23156;DHT22;11746;50.876;4.246;2024-03-29T02:40:33;9.60;99.90
23156;DHT22;11746;50.876;4.246;2024-03-29T02:43:01;9.50;99.90
23156;DHT22;11746;50.876;4.246;2024-03-29T02:45:26;9.30;99.90
23156;DHT22;11746;50.876;4.246;2024-03-29T02:47:55;9.20;99.90
23156;DHT22;11746;50.876;4.246;2024-03-29T02:50:22;9.30;99.90
23156;DHT22;11746;50.876;4.246;2024-03-29T02:52:48;9.20;99.90
23156;DHT22;11746;50.876;4.246;2024-03-29T02:55:14;9.10;99.90
23156;DHT22;11746;50.876;4.246;2024-03-29T02:57:41;9.20;99.90
23156;DHT22;11746;50.876;4.246;2024-03-29T03:00:08;9.00;99.90
23156;DHT22;11746;50.876;4.246;2024-03-29T03:02:40;9.10;99.90
23156;DHT22;11746;50.876;4.246;2024-03-29T03:05:07;9.10;99.90
23156;DHT22;11746;50.876;4.246;2024-03-29T03:07:35;9.20;99.90
23156;DHT22;11746;50.876;4.246;2024-03-29T03:10:19;9.20;99.90
23156;DHT22;11746;50.876;4.246;2024-03-29T03:13:04;9.20;99.90
23156;DHT22;11746;50.876;4.246;2024-03-29T03:15:29;9.20;99.90
23156;DHT22;11746;50.876;4.246;2024-03-29T03:17:55;9.20;99.90
23156;DHT22;11746;50.876;4.246;2024-03-29T03:20:21;9.20;99.90
23156;DHT22;11746;50.876;4.246;2024-03-29T03:22:48;9.10;99.90
23156;DHT22;11746;50.876;4.246;2024-03-29T03:25:21;9.10;99.90
23156;DHT22;11746;50.876;4.246;2024-03-29T03:27:46;9.20;99.90
23156;DHT22;11746;50.876;4.246;2024-03-29T03:30:12;9.10;99.90
23156;DHT22;11746;50.876;4.246;2024-03-29T03:32:38;9.00;99.90
23156;DHT22;11746;50.876;4.246;2024-03-29T03:35:08;9.00;99.90
23156;DHT22;11746;50.876;4.246;2024-03-29T03:37:34;8.80;99.90
23156;DHT22;11746;50.876;4.246;2024-03-29T03:39:59;8.90;99.90
23156;DHT22;11746;50.876;4.246;2024-03-29T03:42:29;8.90;99.90
23156;DHT22;11746;50.876;4.246;2024-03-29T03:44:55;8.80;99.90
23156;DHT22;11746;50.876;4.246;2024-03-29T03:47:21;8.80;99.90
23156;DHT22;11746;50.876;4.246;2024-03-29T03:49:47;8.70;99.90
23156;DHT22;11746;50.876;4.246;2024-03-29T03:52:15;8.80;99.90
23156;DHT22;11746;50.876;4.246;2024-03-29T03:54:43;8.90;99.90
23156;DHT22;11746;50.876;4.246;2024-03-29T03:57:08;8.90;99.90
23156;DHT22;11746;50.876;4.246;2024-03-29T03:59:36;8.80;99.90
23156;DHT22;11746;50.876;4.246;2024-03-29T04:02:02;8.80;99.90
23156;DHT22;11746;50.876;4.246;2024-03-29T04:04:27;8.70;99.90
23156;DHT22;11746;50.876;4.246;2024-03-29T04:06:53;8.80;99.90
23156;DHT22;11746;50.876;4.246;2024-03-29T04:09:23;8.90;99.90
23156;DHT22;11746;50.876;4.246;2024-03-29T04:11:48;8.90;99.90
23156;DHT22;11746;50.876;4.246;2024-03-29T04:14:16;9.00;99.90
23156;DHT22;11746;50.876;4.246;2024-03-29T04:16:42;9.00;99.90
23156;DHT22;11746;50.876;4.246;2024-03-29T04:19:07;9.00;99.90
23156;DHT22;11746;50.876;4.246;2024-03-29T04:21:36;9.00;99.90
23156;DHT22;11746;50.876;4.246;2024-03-29T04:24:01;9.00;99.90
23156;DHT22;11746;50.876;4.246;2024-03-29T04:26:27;9.00;99.90
23156;DHT22;11746;50.876;4.246;2024-03-29T04:28:53;9.00;99.90
23156;DHT22;11746;50.876;4.246;2024-03-29T04:31:18;9.00;99.90
23156;DHT22;11746;50.876;4.246;2024-03-29T04:33:46;8.70;99.90
23156;DHT22;11746;50.876;4.246;2024-03-29T04:36:12;8.80;99.90
23156;DHT22;11746;50.876;4.246;2024-03-29T04:38:38;8.90;99.90
23156;DHT22;11746;50.876;4.246;2024-03-29T04:41:03;8.80;99.90
23156;DHT22;11746;50.876;4.246;2024-03-29T04:43:29;8.90;99.90
23156;DHT22;11746;50.876;4.246;2024-03-29T04:46:07;9.10;99.90
23156;DHT22;11746;50.876;4.246;2024-03-29T04:48:36;9.10;99.90
23156;DHT22;11746;50.876;4.246;2024-03-29T04:51:02;9.00;99.90
23156;DHT22;11746;50.876;4.246;2024-03-29T04:53:27;9.00;99.90
23156;DHT22;11746;50.876;4.246;2024-03-29T04:55:56;9.10;99.90
23156;DHT22;11746;50.876;4.246;2024-03-29T04:58:31;9.10;99.90
23156;DHT22;11746;50.876;4.246;2024-03-29T05:00:57;9.20;99.90
23156;DHT22;11746;50.876;4.246;2024-03-29T05:03:25;9.20;99.90
23156;DHT22;11746;50.876;4.246;2024-03-29T05:05:53;9.20;99.90
23156;DHT22;11746;50.876;4.246;2024-03-29T05:08:19;9.00;99.90
23156;DHT22;11746;50.876;4.246;2024-03-29T05:10:46;9.00;99.90
23156;DHT22;11746;50.876;4.246;2024-03-29T05:13:12;9.00;99.90
23156;DHT22;11746;50.876;4.246;2024-03-29T05:15:38;9.00;99.90
23156;DHT22;11746;50.876;4.246;2024-03-29T05:18:04;9.00;99.90
23156;DHT22;11746;50.876;4.246;2024-03-29T05:20:32;9.00;99.90
23156;DHT22;11746;50.876;4.246;2024-03-29T05:23:00;8.90;99.90
23156;DHT22;11746;50.876;4.246;2024-03-29T05:25:26;9.00;99.90
23156;DHT22;11746;50.876;4.246;2024-03-29T05:27:55;9.00;99.90
23156;DHT22;11746;50.876;4.246;2024-03-29T05:30:23;9.10;99.90
23156;DHT22;11746;50.876;4.246;2024-03-29T05:32:49;9.20;99.90
23156;DHT22;11746;50.876;4.246;2024-03-29T05:35:15;9.10;99.90
23156;DHT22;11746;50.876;4.246;2024-03-29T05:37:41;9.10;99.90
23156;DHT22;11746;50.876;4.246;2024-03-29T05:40:08;9.20;99.90
23156;DHT22;11746;50.876;4.246;2024-03-29T05:42:36;9.20;99.90
23156;DHT22;11746;50.876;4.246;2024-03-29T05:45:25;9.20;99.90
23156;DHT22;11746;50.876;4.246;2024-03-29T05:47:58;9.10;99.90
23156;DHT22;11746;50.876;4.246;2024-03-29T05:50:26;9.10;99.90
23156;DHT22;11746;50.876;4.246;2024-03-29T05:52:52;9.10;99.90
23156;DHT22;11746;50.876;4.246;2024-03-29T05:55:18;9.10;99.90
23156;DHT22;11746;50.876;4.246;2024-03-29T05:57:44;9.20;99.90
23156;DHT22;11746;50.876;4.246;2024-03-29T06:00:12;9.10;99.90
23156;DHT22;11746;50.876;4.246;2024-03-29T06:02:39;9.30;99.90
23156;DHT22;11746;50.876;4.246;2024-03-29T06:05:05;9.20;99.90
23156;DHT22;11746;50.876;4.246;2024-03-29T06:07:32;9.10;99.90
23156;DHT22;11746;50.876;4.246;2024-03-29T06:09:59;9.10;99.90
23156;DHT22;11746;50.876;4.246;2024-03-29T06:12:35;9.10;99.90
23156;DHT22;11746;50.876;4.246;2024-03-29T06:15:04;9.10;99.90
23156;DHT22;11746;50.876;4.246;2024-03-29T06:17:49;9.10;99.90
23156;DHT22;11746;50.876;4.246;2024-03-29T06:20:17;9.10;99.90
23156;DHT22;11746;50.876;4.246;2024-03-29T06:22:43;9.00;99.90
23156;DHT22;11746;50.876;4.246;2024-03-29T06:25:11;9.00;99.90
23156;DHT22;11746;50.876;4.246;2024-03-29T06:27:39;9.10;99.90
23156;DHT22;11746;50.876;4.246;2024-03-29T06:30:10;9.10;99.90
23156;DHT22;11746;50.876;4.246;2024-03-29T06:32:35;9.00;99.90
23156;DHT22;11746;50.876;4.246;2024-03-29T06:35:02;9.00;99.90
23156;DHT22;11746;50.876;4.246;2024-03-29T06:37:28;9.00;99.90
23156;DHT22;11746;50.876;4.246;2024-03-29T06:39:55;9.00;99.90
23156;DHT22;11746;50.876;4.246;2024-03-29T06:42:20;9.10;99.90
23156;DHT22;11746;50.876;4.246;2024-03-29T06:44:46;9.30;99.90
23156;DHT22;11746;50.876;4.246;2024-03-29T06:47:12;9.20;99.90
23156;DHT22;11746;50.876;4.246;2024-03-29T06:49:38;9.30;99.90
23156;DHT22;11746;50.876;4.246;2024-03-29T06:52:03;9.30;99.90
23156;DHT22;11746;50.876;4.246;2024-03-29T06:54:32;9.30;99.90
23156;DHT22;11746;50.876;4.246;2024-03-29T06:56:58;9.30;99.90
23156;DHT22;11746;50.876;4.246;2024-03-29T06:59:27;9.40;99.90
23156;DHT22;11746;50.876;4.246;2024-03-29T07:01:56;9.50;99.90
23156;DHT22;11746;50.876;4.246;2024-03-29T07:04:23;9.50;99.90
23156;DHT22;11746;50.876;4.246;2024-03-29T07:06:49;9.60;99.90
23156;DHT22;11746;50.876;4.246;2024-03-29T07:09:23;9.70;99.90
23156;DHT22;11746;50.876;4.246;2024-03-29T07:11:54;9.70;99.90
23156;DHT22;11746;50.876;4.246;2024-03-29T07:14:20;9.70;99.90
23156;DHT22;11746;50.876;4.246;2024-03-29T07:16:47;9.70;99.90
23156;DHT22;11746;50.876;4.246;2024-03-29T07:19:13;9.70;99.90
23156;DHT22;11746;50.876;4.246;2024-03-29T07:21:42;9.70;99.90
23156;DHT22;11746;50.876;4.246;2024-03-29T07:24:10;9.60;99.90
23156;DHT22;11746;50.876;4.246;2024-03-29T07:26:36;9.70;99.90
23156;DHT22;11746;50.876;4.246;2024-03-29T07:29:02;9.60;99.90
23156;DHT22;11746;50.876;4.246;2024-03-29T07:31:31;9.50;99.90
23156;DHT22;11746;50.876;4.246;2024-03-29T07:33:59;9.50;99.90
23156;DHT22;11746;50.876;4.246;2024-03-29T07:36:25;9.60;99.90
23156;DHT22;11746;50.876;4.246;2024-03-29T07:38:55;9.70;99.90
23156;DHT22;11746;50.876;4.246;2024-03-29T07:41:20;9.80;99.90
23156;DHT22;11746;50.876;4.246;2024-03-29T07:43:56;9.90;99.90
23156;DHT22;11746;50.876;4.246;2024-03-29T07:46:32;10.00;99.90
23156;DHT22;11746;50.876;4.246;2024-03-29T07:48:58;10.00;99.90
23156;DHT22;11746;50.876;4.246;2024-03-29T07:51:23;10.30;99.90
23156;DHT22;11746;50.876;4.246;2024-03-29T07:53:51;10.40;99.90
23156;DHT22;11746;50.876;4.246;2024-03-29T07:56:17;10.30;99.90
23156;DHT22;11746;50.876;4.246;2024-03-29T07:58:43;10.30;99.90
23156;DHT22;11746;50.876;4.246;2024-03-29T08:01:09;10.30;99.90
23156;DHT22;11746;50.876;4.246;2024-03-29T08:03:35;10.50;99.90
23156;DHT22;11746;50.876;4.246;2024-03-29T08:06:03;10.40;99.90
23156;DHT22;11746;50.876;4.246;2024-03-29T08:08:33;10.30;99.90
23156;DHT22;11746;50.876;4.246;2024-03-29T08:11:01;10.30;99.90
23156;DHT22;11746;50.876;4.246;2024-03-29T08:13:29;10.10;99.90
23156;DHT22;11746;50.876;4.246;2024-03-29T08:15:59;10.10;99.90
23156;DHT22;11746;50.876;4.246;2024-03-29T08:18:26;10.30;99.90
23156;DHT22;11746;50.876;4.246;2024-03-29T08:20:52;10.40;99.90
23156;DHT22;11746;50.876;4.246;2024-03-29T08:23:21;10.30;99.90
23156;DHT22;11746;50.876;4.246;2024-03-29T08:25:49;10.30;99.90
23156;DHT22;11746;50.876;4.246;2024-03-29T08:28:22;10.30;99.90
23156;DHT22;11746;50.876;4.246;2024-03-29T08:31:07;10.40;99.90
23156;DHT22;11746;50.876;4.246;2024-03-29T08:33:35;10.40;99.90
23156;DHT22;11746;50.876;4.246;2024-03-29T08:36:06;10.50;99.90
23156;DHT22;11746;50.876;4.246;2024-03-29T08:38:32;10.60;99.90
23156;DHT22;11746;50.876;4.246;2024-03-29T08:41:01;10.70;99.90
23156;DHT22;11746;50.876;4.246;2024-03-29T08:43:26;10.70;99.90
23156;DHT22;11746;50.876;4.246;2024-03-29T08:45:52;10.80;99.90
23156;DHT22;11746;50.876;4.246;2024-03-29T08:48:18;10.80;99.90
23156;DHT22;11746;50.876;4.246;2024-03-29T08:50:46;10.70;99.90
23156;DHT22;11746;50.876;4.246;2024-03-29T08:53:14;10.80;99.90
23156;DHT22;11746;50.876;4.246;2024-03-29T08:55:40;10.70;99.90
23156;DHT22;11746;50.876;4.246;2024-03-29T08:58:10;10.80;99.90
23156;DHT22;11746;50.876;4.246;2024-03-29T09:00:38;10.80;99.90
23156;DHT22;11746;50.876;4.246;2024-03-29T09:03:04;10.80;99.90
23156;DHT22;11746;50.876;4.246;2024-03-29T09:05:33;10.90;99.90
23156;DHT22;11746;50.876;4.246;2024-03-29T09:07:58;11.10;99.90
23156;DHT22;11746;50.876;4.246;2024-03-29T09:10:25;11.10;99.90
23156;DHT22;11746;50.876;4.246;2024-03-29T09:12:52;11.10;99.90
23156;DHT22;11746;50.876;4.246;2024-03-29T09:15:18;11.00;99.90
23156;DHT22;11746;50.876;4.246;2024-03-29T09:17:44;11.00;99.90
23156;DHT22;11746;50.876;4.246;2024-03-29T09:20:10;11.10;99.90
23156;DHT22;11746;50.876;4.246;2024-03-29T09:22:36;11.00;99.90
23156;DHT22;11746;50.876;4.246;2024-03-29T09:25:04;11.20;99.90
23156;DHT22;11746;50.876;4.246;2024-03-29T09:27:32;11.20;99.90
23156;DHT22;11746;50.876;4.246;2024-03-29T09:30:03;11.20;99.90
23156;DHT22;11746;50.876;4.246;2024-03-29T09:32:31;11.30;99.90
23156;DHT22;11746;50.876;4.246;2024-03-29T09:35:04;11.50;99.90
23156;DHT22;11746;50.876;4.246;2024-03-29T09:37:29;11.60;99.90
23156;DHT22;11746;50.876;4.246;2024-03-29T09:40:04;11.60;99.90
23156;DHT22;11746;50.876;4.246;2024-03-29T09:42:32;11.70;99.90
23156;DHT22;11746;50.876;4.246;2024-03-29T09:45:02;11.80;99.90
23156;DHT22;11746;50.876;4.246;2024-03-29T09:47:32;11.80;99.90
23156;DHT22;11746;50.876;4.246;2024-03-29T09:50:07;11.80;99.90
23156;DHT22;11746;50.876;4.246;2024-03-29T09:52:36;11.90;99.90
23156;DHT22;11746;50.876;4.246;2024-03-29T09:55:03;11.80;99.90
23156;DHT22;11746;50.876;4.246;2024-03-29T09:57:29;11.80;99.90
23156;DHT22;11746;50.876;4.246;2024-03-29T09:59:57;11.70;99.90
23156;DHT22;11746;50.876;4.246;2024-03-29T10:02:27;11.70;99.90
23156;DHT22;11746;50.876;4.246;2024-03-29T10:04:56;11.90;99.90
23156;DHT22;11746;50.876;4.246;2024-03-29T10:07:25;12.30;99.90
23156;DHT22;11746;50.876;4.246;2024-03-29T10:09:51;12.40;99.90
23156;DHT22;11746;50.876;4.246;2024-03-29T10:12:20;12.40;99.90
23156;DHT22;11746;50.876;4.246;2024-03-29T10:14:48;12.40;99.90
23156;DHT22;11746;50.876;4.246;2024-03-29T10:17:19;12.20;99.90
23156;DHT22;11746;50.876;4.246;2024-03-29T10:19:45;12.30;99.90
23156;DHT22;11746;50.876;4.246;2024-03-29T10:22:11;12.60;99.90
23156;DHT22;11746;50.876;4.246;2024-03-29T10:24:40;12.90;99.90
23156;DHT22;11746;50.876;4.246;2024-03-29T10:27:08;13.10;99.90
23156;DHT22;11746;50.876;4.246;2024-03-29T10:29:36;13.00;99.90
23156;DHT22;11746;50.876;4.246;2024-03-29T10:32:02;13.00;99.90
23156;DHT22;11746;50.876;4.246;2024-03-29T10:34:29;13.10;99.90
23156;DHT22;11746;50.876;4.246;2024-03-29T10:37:03;13.20;99.90
23156;DHT22;11746;50.876;4.246;2024-03-29T10:39:33;13.30;99.90
23156;DHT22;11746;50.876;4.246;2024-03-29T10:42:04;13.10;99.90
23156;DHT22;11746;50.876;4.246;2024-03-29T10:44:31;13.10;99.90
23156;DHT22;11746;50.876;4.246;2024-03-29T10:46:57;13.10;99.90
23156;DHT22;11746;50.876;4.246;2024-03-29T10:49:24;13.30;99.90
23156;DHT22;11746;50.876;4.246;2024-03-29T10:51:53;13.30;99.90
23156;DHT22;11746;50.876;4.246;2024-03-29T10:54:19;13.70;99.90
23156;DHT22;11746;50.876;4.246;2024-03-29T10:56:47;13.80;99.90
23156;DHT22;11746;50.876;4.246;2024-03-29T10:59:21;13.90;99.90
23156;DHT22;11746;50.876;4.246;2024-03-29T11:01:52;13.70;99.90
23156;DHT22;11746;50.876;4.246;2024-03-29T11:04:22;13.60;99.90
23156;DHT22;11746;50.876;4.246;2024-03-29T11:06:54;13.70;99.90
23156;DHT22;11746;50.876;4.246;2024-03-29T11:09:28;13.70;99.90
23156;DHT22;11746;50.876;4.246;2024-03-29T11:11:58;14.00;99.90
23156;DHT22;11746;50.876;4.246;2024-03-29T11:14:44;14.20;99.90
23156;DHT22;11746;50.876;4.246;2024-03-29T11:17:16;14.30;99.90
23156;DHT22;11746;50.876;4.246;2024-03-29T11:19:42;14.50;99.90
23156;DHT22;11746;50.876;4.246;2024-03-29T11:22:09;14.60;99.90
23156;DHT22;11746;50.876;4.246;2024-03-29T11:24:35;14.60;99.90
23156;DHT22;11746;50.876;4.246;2024-03-29T11:27:10;14.70;99.90
23156;DHT22;11746;50.876;4.246;2024-03-29T11:29:36;14.90;99.90
23156;DHT22;11746;50.876;4.246;2024-03-29T11:32:06;14.70;99.90
23156;DHT22;11746;50.876;4.246;2024-03-29T11:34:31;14.70;99.90
23156;DHT22;11746;50.876;4.246;2024-03-29T11:37:09;14.60;99.90
23156;DHT22;11746;50.876;4.246;2024-03-29T11:39:39;14.90;99.90
23156;DHT22;11746;50.876;4.246;2024-03-29T11:42:06;14.70;99.90
23156;DHT22;11746;50.876;4.246;2024-03-29T11:44:34;14.50;99.90
23156;DHT22;11746;50.876;4.246;2024-03-29T11:47:04;14.20;99.90
23156;DHT22;11746;50.876;4.246;2024-03-29T11:49:32;14.00;99.90
23156;DHT22;11746;50.876;4.246;2024-03-29T11:52:03;14.10;99.90
23156;DHT22;11746;50.876;4.246;2024-03-29T11:54:36;14.50;99.90
23156;DHT22;11746;50.876;4.246;2024-03-29T11:57:04;14.70;99.90
23156;DHT22;11746;50.876;4.246;2024-03-29T11:59:30;14.90;99.90
23156;DHT22;11746;50.876;4.246;2024-03-29T12:01:56;15.00;99.90
23156;DHT22;11746;50.876;4.246;2024-03-29T12:04:24;15.30;99.90
23156;DHT22;11746;50.876;4.246;2024-03-29T12:06:53;15.80;99.90
23156;DHT22;11746;50.876;4.246;2024-03-29T12:09:18;15.80;99.90
23156;DHT22;11746;50.876;4.246;2024-03-29T12:11:44;15.90;99.90
23156;DHT22;11746;50.876;4.246;2024-03-29T12:14:12;15.90;99.90
23156;DHT22;11746;50.876;4.246;2024-03-29T12:16:45;15.20;99.90
23156;DHT22;11746;50.876;4.246;2024-03-29T12:19:22;15.20;99.90
23156;DHT22;11746;50.876;4.246;2024-03-29T12:21:48;15.50;99.90
23156;DHT22;11746;50.876;4.246;2024-03-29T12:24:14;15.40;99.90
23156;DHT22;11746;50.876;4.246;2024-03-29T12:26:41;15.70;99.90
23156;DHT22;11746;50.876;4.246;2024-03-29T12:29:07;16.00;99.90
23156;DHT22;11746;50.876;4.246;2024-03-29T12:31:32;15.80;99.90
23156;DHT22;11746;50.876;4.246;2024-03-29T12:34:00;15.70;99.90
23156;DHT22;11746;50.876;4.246;2024-03-29T12:36:31;15.60;99.90
23156;DHT22;11746;50.876;4.246;2024-03-29T12:38:59;15.50;99.90
23156;DHT22;11746;50.876;4.246;2024-03-29T12:41:34;15.30;99.90
23156;DHT22;11746;50.876;4.246;2024-03-29T12:44:01;15.20;99.90
23156;DHT22;11746;50.876;4.246;2024-03-29T12:46:26;15.20;99.90
23156;DHT22;11746;50.876;4.246;2024-03-29T12:48:59;15.20;99.90
23156;DHT22;11746;50.876;4.246;2024-03-29T12:51:28;15.40;99.90
23156;DHT22;11746;50.876;4.246;2024-03-29T12:54:02;15.50;99.90
23156;DHT22;11746;50.876;4.246;2024-03-29T12:56:31;15.40;99.90
23156;DHT22;11746;50.876;4.246;2024-03-29T12:58:57;15.70;99.90
23156;DHT22;11746;50.876;4.246;2024-03-29T13:01:22;15.70;99.90
23156;DHT22;11746;50.876;4.246;2024-03-29T13:03:48;15.70;99.90
23156;DHT22;11746;50.876;4.246;2024-03-29T13:06:16;15.60;99.90
23156;DHT22;11746;50.876;4.246;2024-03-29T13:08:43;15.60;99.90
23156;DHT22;11746;50.876;4.246;2024-03-29T13:11:08;15.70;99.90
23156;DHT22;11746;50.876;4.246;2024-03-29T13:13:36;15.60;99.90
23156;DHT22;11746;50.876;4.246;2024-03-29T13:16:02;15.60;99.90
23156;DHT22;11746;50.876;4.246;2024-03-29T13:18:31;15.70;99.90
23156;DHT22;11746;50.876;4.246;2024-03-29T13:20:57;15.80;99.90
23156;DHT22;11746;50.876;4.246;2024-03-29T13:23:27;16.10;99.90
23156;DHT22;11746;50.876;4.246;2024-03-29T13:25:55;16.10;99.90
23156;DHT22;11746;50.876;4.246;2024-03-29T13:28:22;16.00;99.90
23156;DHT22;11746;50.876;4.246;2024-03-29T13:30:50;16.10;99.90
23156;DHT22;11746;50.876;4.246;2024-03-29T13:33:17;16.30;99.90
23156;DHT22;11746;50.876;4.246;2024-03-29T13:35:45;16.30;99.90
23156;DHT22;11746;50.876;4.246;2024-03-29T13:38:11;16.10;99.90
23156;DHT22;11746;50.876;4.246;2024-03-29T13:40:36;16.40;99.90
23156;DHT22;11746;50.876;4.246;2024-03-29T13:43:07;16.50;99.90
23156;DHT22;11746;50.876;4.246;2024-03-29T13:45:33;16.80;99.90
23156;DHT22;11746;50.876;4.246;2024-03-29T13:47:59;16.70;99.90
23156;DHT22;11746;50.876;4.246;2024-03-29T13:50:24;16.00;99.90
23156;DHT22;11746;50.876;4.246;2024-03-29T13:52:53;15.90;99.90
23156;DHT22;11746;50.876;4.246;2024-03-29T13:55:22;15.50;99.90
23156;DHT22;11746;50.876;4.246;2024-03-29T13:57:53;15.50;99.90
23156;DHT22;11746;50.876;4.246;2024-03-29T14:00:21;15.60;99.90
23156;DHT22;11746;50.876;4.246;2024-03-29T14:02:47;15.60;99.90
23156;DHT22;11746;50.876;4.246;2024-03-29T14:05:12;15.70;99.90
23156;DHT22;11746;50.876;4.246;2024-03-29T14:07:39;15.70;99.90
23156;DHT22;11746;50.876;4.246;2024-03-29T14:10:07;15.90;99.90
23156;DHT22;11746;50.876;4.246;2024-03-29T14:12:33;15.90;99.90
23156;DHT22;11746;50.876;4.246;2024-03-29T14:15:02;16.00;99.90
23156;DHT22;11746;50.876;4.246;2024-03-29T14:17:28;16.00;99.90
23156;DHT22;11746;50.876;4.246;2024-03-29T14:19:54;16.40;99.90
23156;DHT22;11746;50.876;4.246;2024-03-29T14:22:22;16.80;99.90
23156;DHT22;11746;50.876;4.246;2024-03-29T14:24:49;17.30;99.90
23156;DHT22;11746;50.876;4.246;2024-03-29T14:27:16;17.50;99.90
23156;DHT22;11746;50.876;4.246;2024-03-29T14:29:44;17.40;99.90
23156;DHT22;11746;50.876;4.246;2024-03-29T14:32:11;17.90;99.90
23156;DHT22;11746;50.876;4.246;2024-03-29T14:34:37;17.60;99.90
23156;DHT22;11746;50.876;4.246;2024-03-29T14:37:10;17.60;99.90
23156;DHT22;11746;50.876;4.246;2024-03-29T14:39:41;17.50;99.90
23156;DHT22;11746;50.876;4.246;2024-03-29T14:42:11;17.70;99.90
23156;DHT22;11746;50.876;4.246;2024-03-29T14:44:38;17.40;99.90
23156;DHT22;11746;50.876;4.246;2024-03-29T14:47:04;17.70;99.90
23156;DHT22;11746;50.876;4.246;2024-03-29T14:49:31;17.50;99.90
23156;DHT22;11746;50.876;4.246;2024-03-29T14:51:57;17.80;99.90
23156;DHT22;11746;50.876;4.246;2024-03-29T14:54:25;17.60;99.90
23156;DHT22;11746;50.876;4.246;2024-03-29T14:56:53;17.20;99.90
23156;DHT22;11746;50.876;4.246;2024-03-29T14:59:18;17.30;99.90
23156;DHT22;11746;50.876;4.246;2024-03-29T15:01:46;16.90;99.90
23156;DHT22;11746;50.876;4.246;2024-03-29T15:04:13;16.70;99.90
23156;DHT22;11746;50.876;4.246;2024-03-29T15:06:38;16.30;99.90
23156;DHT22;11746;50.876;4.246;2024-03-29T15:09:06;16.20;99.90
23156;DHT22;11746;50.876;4.246;2024-03-29T15:11:33;16.20;99.90
23156;DHT22;11746;50.876;4.246;2024-03-29T15:14:00;16.40;99.90
23156;DHT22;11746;50.876;4.246;2024-03-29T15:16:26;16.30;99.90
23156;DHT22;11746;50.876;4.246;2024-03-29T15:18:53;16.20;99.90
23156;DHT22;11746;50.876;4.246;2024-03-29T15:21:22;15.80;99.90
23156;DHT22;11746;50.876;4.246;2024-03-29T15:23:50;15.50;99.90
23156;DHT22;11746;50.876;4.246;2024-03-29T15:26:16;15.40;99.90
23156;DHT22;11746;50.876;4.246;2024-03-29T15:28:42;15.30;99.90
23156;DHT22;11746;50.876;4.246;2024-03-29T15:31:43;15.20;99.90
23156;DHT22;11746;50.876;4.246;2024-03-29T15:34:09;15.30;99.90
23156;DHT22;11746;50.876;4.246;2024-03-29T15:36:36;15.40;99.90
23156;DHT22;11746;50.876;4.246;2024-03-29T15:39:05;15.20;99.90